createdAt,value
2022-10-01T00:00:32.383Z,6.30
2022-10-01T00:01:32.736Z,6.60
2022-10-01T00:02:32.422Z,6.90
2022-10-01T00:03:32.329Z,7.30
2022-10-01T00:04:32.332Z,6.80
2022-10-01T00:05:32.330Z,6.60
2022-10-01T00:06:32.359Z,6.60
2022-10-01T00:07:32.352Z,6.80
2022-10-01T00:08:32.338Z,6.70
2022-10-01T00:09:32.308Z,7.20
2022-10-01T00:10:32.313Z,6.80
2022-10-01T00:11:32.620Z,6.90
2022-10-01T00:12:32.296Z,6.40
2022-10-01T00:13:32.294Z,7.30
2022-10-01T00:14:32.329Z,6.70
2022-10-01T00:15:32.282Z,6.70
2022-10-01T00:16:32.336Z,7.10
2022-10-01T00:17:32.291Z,7.30
2022-10-01T00:18:32.303Z,7.50
2022-10-01T00:19:32.265Z,7.30
2022-10-01T00:20:32.399Z,7.10
2022-10-01T00:21:32.599Z,7.30
2022-10-01T00:22:32.236Z,6.80
2022-10-01T00:23:32.270Z,6.90
2022-10-01T00:24:32.238Z,6.90
2022-10-01T00:25:32.240Z,6.70
2022-10-01T00:26:32.234Z,7.30
2022-10-01T00:27:32.230Z,6.80
2022-10-01T00:28:32.243Z,7.20
2022-10-01T00:29:32.247Z,6.70
2022-10-01T00:30:32.205Z,7.10
2022-10-01T00:31:32.674Z,7.50
2022-10-01T00:32:32.226Z,7.90
2022-10-01T00:33:32.207Z,7.30
2022-10-01T00:34:32.227Z,8.00
2022-10-01T00:35:32.189Z,8.40
2022-10-01T00:36:32.199Z,7.70
2022-10-01T00:37:32.191Z,8.40
2022-10-01T00:38:32.186Z,8.60
2022-10-01T00:39:32.201Z,8.00
2022-10-01T00:40:32.173Z,8.80
2022-10-01T00:41:32.709Z,8.70
2022-10-01T00:42:32.162Z,8.60
2022-10-01T00:43:32.147Z,8.90
2022-10-01T00:44:32.188Z,8.50
2022-10-01T00:45:32.212Z,9.30
2022-10-01T00:46:32.166Z,8.70
2022-10-01T00:47:32.125Z,8.90
2022-10-01T00:48:32.126Z,8.00
2022-10-01T00:49:32.136Z,9.20
2022-10-01T00:50:32.120Z,8.80
2022-10-01T00:51:32.548Z,9.10
2022-10-01T00:52:32.105Z,8.40
2022-10-01T00:53:32.114Z,8.20
2022-10-01T00:54:32.118Z,8.70
2022-10-01T00:55:32.086Z,8.70
2022-10-01T00:56:32.131Z,7.70
2022-10-01T00:57:32.099Z,8.10
2022-10-01T00:58:32.111Z,8.00
2022-10-01T00:59:32.090Z,7.70
2022-10-01T01:00:32.091Z,7.40
2022-10-01T01:01:32.327Z,6.70
2022-10-01T01:02:32.118Z,7.00
2022-10-01T01:03:32.062Z,7.30
2022-10-01T01:04:32.055Z,6.60
2022-10-01T01:05:32.063Z,6.10
2022-10-01T01:06:32.056Z,7.00
2022-10-01T01:07:32.068Z,6.50
2022-10-01T01:08:32.026Z,6.40
2022-10-01T01:09:32.035Z,6.80
2022-10-01T01:10:32.034Z,6.30
2022-10-01T01:11:32.332Z,6.30
2022-10-01T01:12:32.044Z,6.90
2022-10-01T01:13:32.017Z,6.40
2022-10-01T01:14:32.036Z,6.90
2022-10-01T01:15:32.022Z,7.00
2022-10-01T01:16:31.999Z,7.20
2022-10-01T01:17:32.003Z,7.20
2022-10-01T01:18:32.020Z,6.80
2022-10-01T01:19:32.012Z,6.60
2022-10-01T01:20:31.990Z,6.70
2022-10-01T01:21:32.288Z,7.00
2022-10-01T01:22:31.995Z,7.00
2022-10-01T01:23:31.966Z,6.50
2022-10-01T01:24:31.992Z,7.50
2022-10-01T01:25:31.995Z,7.20
2022-10-01T01:26:31.995Z,7.90
2022-10-01T01:27:32.020Z,7.40
2022-10-01T01:28:31.945Z,7.00
2022-10-01T01:29:31.990Z,6.80
2022-10-01T01:30:31.925Z,7.70
2022-10-01T01:31:32.360Z,7.50
2022-10-01T01:32:31.933Z,7.10
2022-10-01T01:33:31.940Z,7.00
2022-10-01T01:34:31.941Z,7.00
2022-10-01T01:35:31.910Z,7.50
2022-10-01T01:36:31.952Z,7.50
2022-10-01T01:37:31.951Z,6.30
2022-10-01T01:38:31.895Z,7.10
2022-10-01T01:39:31.896Z,7.60
2022-10-01T01:40:31.884Z,7.10
2022-10-01T01:41:32.237Z,6.70
2022-10-01T01:42:31.883Z,6.60
2022-10-01T01:43:31.876Z,5.90
2022-10-01T01:44:31.882Z,6.60
2022-10-01T01:45:31.888Z,6.70
2022-10-01T01:46:31.884Z,7.00
2022-10-01T01:47:31.859Z,6.50
2022-10-01T01:48:31.878Z,6.30
2022-10-01T01:49:31.880Z,6.50
2022-10-01T01:50:31.852Z,6.40
2022-10-01T01:51:32.159Z,6.20
2022-10-01T01:52:31.836Z,6.00
2022-10-01T01:53:31.875Z,6.30
2022-10-01T01:54:31.809Z,6.20
2022-10-01T01:55:31.863Z,6.40
2022-10-01T01:56:31.826Z,6.00
2022-10-01T01:57:31.821Z,6.30
2022-10-01T01:58:31.825Z,6.40
2022-10-01T01:59:31.794Z,6.10
2022-10-01T02:00:31.786Z,6.10
2022-10-01T02:01:32.162Z,5.10
2022-10-01T02:02:31.850Z,5.70
2022-10-01T02:03:31.802Z,4.80
2022-10-01T02:04:31.794Z,5.10
2022-10-01T02:05:31.798Z,4.70
2022-10-01T02:06:31.782Z,5.20
2022-10-01T02:07:31.766Z,5.70
2022-10-01T02:08:32.781Z,5.50
2022-10-01T02:09:31.770Z,5.40
2022-10-01T02:10:31.780Z,5.60
2022-10-01T02:11:32.039Z,5.60
2022-10-01T02:12:31.731Z,5.00
2022-10-01T02:13:31.738Z,4.50
2022-10-01T02:14:31.735Z,4.70
2022-10-01T02:15:31.737Z,5.10
2022-10-01T02:16:31.714Z,5.10
2022-10-01T02:17:31.740Z,5.00
2022-10-01T02:18:31.734Z,5.20
2022-10-01T02:19:31.737Z,5.40
2022-10-01T02:20:31.693Z,4.90
2022-10-01T02:21:32.068Z,4.90
2022-10-01T02:22:31.703Z,5.40
2022-10-01T02:23:31.702Z,5.50
2022-10-01T02:24:31.692Z,4.80
2022-10-01T02:25:31.678Z,4.90
2022-10-01T02:26:31.667Z,5.20
2022-10-01T02:27:31.726Z,5.30
2022-10-01T02:28:31.765Z,5.30
2022-10-01T02:29:31.678Z,5.30
2022-10-01T02:30:31.645Z,5.30
2022-10-01T02:31:31.981Z,5.90
2022-10-01T02:32:31.674Z,5.50
2022-10-01T02:33:31.651Z,5.20
2022-10-01T02:34:31.677Z,5.10
2022-10-01T02:35:31.675Z,5.00
2022-10-01T02:36:31.674Z,5.40
2022-10-01T02:37:31.639Z,5.10
2022-10-01T02:38:31.665Z,5.60
2022-10-01T02:39:31.627Z,5.90
2022-10-01T02:40:31.638Z,5.30
2022-10-01T02:41:32.036Z,5.00
2022-10-01T02:42:31.587Z,5.40
2022-10-01T02:43:31.598Z,5.20
2022-10-01T02:44:31.583Z,4.70
2022-10-01T02:45:31.641Z,4.70
2022-10-01T02:46:31.618Z,5.50
2022-10-01T02:47:31.614Z,5.00
2022-10-01T02:48:31.566Z,4.80
2022-10-01T02:49:31.581Z,5.30
2022-10-01T02:50:31.571Z,4.70
2022-10-01T02:51:31.839Z,5.10
2022-10-01T02:52:31.584Z,5.10
2022-10-01T02:53:31.545Z,4.70
2022-10-01T02:54:31.541Z,4.90
2022-10-01T02:55:31.558Z,4.50
2022-10-01T02:56:31.532Z,4.80
2022-10-01T02:57:31.565Z,5.10
2022-10-01T02:58:31.526Z,4.60
2022-10-01T02:59:31.564Z,4.60
2022-10-01T03:00:31.518Z,4.80
2022-10-01T03:01:31.699Z,4.70
2022-10-01T03:02:31.739Z,4.50
2022-10-01T03:03:31.506Z,5.10
2022-10-01T03:04:31.520Z,5.20
2022-10-01T03:05:31.513Z,4.60
2022-10-01T03:06:31.487Z,5.00
2022-10-01T03:07:31.482Z,5.40
2022-10-01T03:08:31.481Z,5.10
2022-10-01T03:09:31.498Z,4.80
2022-10-01T03:10:31.487Z,5.20
2022-10-01T03:11:31.953Z,5.00
2022-10-01T03:12:31.451Z,5.00
2022-10-01T03:13:31.442Z,4.60
2022-10-01T03:14:31.472Z,5.10
2022-10-01T03:15:31.443Z,5.10
2022-10-01T03:16:31.445Z,5.00
2022-10-01T03:17:31.433Z,5.00
2022-10-01T03:18:31.428Z,5.00
2022-10-01T03:19:31.452Z,5.00
2022-10-01T03:20:31.419Z,4.70
2022-10-01T03:21:31.764Z,5.20
2022-10-01T03:22:31.416Z,4.70
2022-10-01T03:23:31.402Z,4.90
2022-10-01T03:24:31.420Z,4.70
2022-10-01T03:25:31.420Z,5.50
2022-10-01T03:26:31.396Z,4.60
2022-10-01T03:27:31.388Z,4.60
2022-10-01T03:28:31.426Z,5.40
2022-10-01T03:29:31.383Z,4.80
2022-10-01T03:30:31.398Z,4.70
2022-10-01T03:31:31.895Z,4.80
2022-10-01T03:32:31.367Z,4.40
2022-10-01T03:33:31.350Z,4.60
2022-10-01T03:34:31.355Z,4.80
2022-10-01T03:35:31.376Z,4.60
2022-10-01T03:36:31.363Z,4.90
2022-10-01T03:37:31.336Z,4.80
2022-10-01T03:38:31.328Z,4.60
2022-10-01T03:39:31.342Z,4.10
2022-10-01T03:40:31.309Z,4.00
2022-10-01T03:41:31.450Z,4.10
2022-10-01T03:42:31.324Z,4.40
2022-10-01T03:43:31.307Z,4.70
2022-10-01T03:44:31.295Z,4.30
2022-10-01T03:45:31.342Z,4.10
2022-10-01T03:46:31.334Z,4.20
2022-10-01T03:47:31.311Z,3.90
2022-10-01T03:48:31.296Z,4.00
2022-10-01T03:49:31.266Z,4.20
2022-10-01T03:50:31.275Z,4.30
2022-10-01T03:51:31.502Z,4.20
2022-10-01T03:52:31.248Z,4.00
2022-10-01T03:53:31.291Z,4.40
2022-10-01T03:54:31.254Z,4.20
2022-10-01T03:55:31.242Z,4.10
2022-10-01T03:56:31.237Z,4.30
2022-10-01T03:57:31.263Z,4.30
2022-10-01T03:58:31.228Z,4.40
2022-10-01T03:59:31.231Z,4.50
2022-10-01T04:00:31.308Z,5.20
2022-10-01T04:01:31.536Z,4.60
2022-10-01T04:02:31.291Z,4.40
2022-10-01T04:03:31.203Z,4.90
2022-10-01T04:04:31.221Z,4.80
2022-10-01T04:05:31.213Z,4.50
2022-10-01T04:06:31.217Z,4.70
2022-10-01T04:07:31.177Z,4.80
2022-10-01T04:08:31.228Z,4.70
2022-10-01T04:09:31.173Z,4.70
2022-10-01T04:10:31.189Z,5.10
2022-10-01T04:11:31.364Z,5.10
2022-10-01T04:12:31.150Z,5.30
2022-10-01T04:13:31.149Z,5.30
2022-10-01T04:14:31.175Z,5.60
2022-10-01T04:15:31.140Z,5.90
2022-10-01T04:16:31.236Z,5.80
2022-10-01T04:17:31.142Z,5.60
2022-10-01T04:18:31.132Z,5.60
2022-10-01T04:19:31.134Z,5.60
2022-10-01T04:20:31.143Z,5.50
2022-10-01T04:21:31.398Z,5.80
2022-10-01T04:22:31.113Z,5.90
2022-10-01T04:23:31.108Z,6.10
2022-10-01T04:24:31.093Z,6.20
2022-10-01T04:25:31.098Z,6.00
2022-10-01T04:26:31.085Z,6.10
2022-10-01T04:27:31.131Z,6.50
2022-10-01T04:28:31.209Z,6.30
2022-10-01T04:29:31.090Z,6.10
2022-10-01T04:30:31.055Z,6.20
2022-10-01T04:31:31.178Z,6.60
2022-10-01T04:32:31.080Z,6.40
2022-10-01T04:33:31.069Z,6.70
2022-10-01T04:34:31.048Z,6.20
2022-10-01T04:35:31.048Z,6.90
2022-10-01T04:36:31.037Z,6.40
2022-10-01T04:37:31.063Z,6.80
2022-10-01T04:38:31.046Z,6.40
2022-10-01T04:39:31.047Z,6.70
2022-10-01T04:40:31.014Z,7.00
2022-10-01T04:41:31.484Z,6.70
2022-10-01T04:42:31.037Z,7.20
2022-10-01T04:43:31.057Z,7.10
2022-10-01T04:44:31.068Z,6.90
2022-10-01T04:45:31.006Z,6.70
2022-10-01T04:46:31.083Z,6.90
2022-10-01T04:47:33.567Z,7.10
2022-10-01T04:48:31.989Z,7.60
2022-10-01T04:49:31.018Z,7.30
2022-10-01T04:50:31.005Z,7.40
2022-10-01T04:51:31.140Z,7.40
2022-10-01T04:52:30.971Z,7.40
2022-10-01T04:53:30.990Z,8.30
2022-10-01T04:54:30.994Z,7.60
2022-10-01T04:55:30.945Z,8.00
2022-10-01T04:56:30.953Z,7.80
2022-10-01T04:57:30.934Z,8.00
2022-10-01T04:58:30.951Z,8.20
2022-10-01T04:59:30.961Z,8.00
2022-10-01T05:00:30.952Z,7.40
2022-10-01T05:01:31.146Z,8.20
2022-10-01T05:02:30.950Z,7.80
2022-10-01T05:03:30.916Z,8.20
2022-10-01T05:04:30.909Z,8.30
2022-10-01T05:05:30.917Z,7.80
2022-10-01T05:06:30.885Z,8.10
2022-10-01T05:07:30.902Z,7.70
2022-10-01T05:08:30.895Z,7.80
2022-10-01T05:09:30.880Z,6.90
2022-10-01T05:10:30.899Z,7.50
2022-10-01T05:11:31.098Z,7.60
2022-10-01T05:12:30.864Z,7.70
2022-10-01T05:13:30.861Z,7.00
2022-10-01T05:14:30.875Z,7.40
2022-10-01T05:15:30.890Z,7.20
2022-10-01T05:16:30.926Z,7.40
2022-10-01T05:17:30.834Z,7.50
2022-10-01T05:18:30.827Z,6.90
2022-10-01T05:19:30.847Z,8.10
2022-10-01T05:20:30.835Z,7.80
2022-10-01T05:21:30.999Z,7.70
2022-10-01T05:22:30.850Z,6.80
2022-10-01T05:23:30.823Z,6.80
2022-10-01T05:24:30.798Z,6.60
2022-10-01T05:25:30.873Z,7.20
2022-10-01T05:26:30.816Z,7.70
2022-10-01T05:27:30.805Z,6.80
2022-10-01T05:28:30.818Z,7.70
2022-10-01T05:29:30.779Z,7.80
2022-10-01T05:30:30.779Z,7.60
2022-10-01T05:31:30.901Z,7.30
2022-10-01T05:32:30.794Z,7.50
2022-10-01T05:33:30.783Z,7.90
2022-10-01T05:34:30.793Z,7.70
2022-10-01T05:35:30.744Z,8.00
2022-10-01T05:36:30.766Z,8.30
2022-10-01T05:37:30.750Z,7.70
2022-10-01T05:38:30.777Z,7.00
2022-10-01T05:39:31.735Z,7.80
2022-10-01T05:40:30.736Z,7.50
2022-10-01T05:41:30.974Z,7.90
2022-10-01T05:42:30.727Z,8.10
2022-10-01T05:43:30.762Z,7.50
2022-10-01T05:44:30.745Z,7.20
2022-10-01T05:45:30.784Z,7.80
2022-10-01T05:46:30.706Z,7.60
2022-10-01T05:47:30.700Z,6.80
2022-10-01T05:48:30.695Z,7.30
2022-10-01T05:49:30.726Z,7.60
2022-10-01T05:50:30.678Z,7.10
2022-10-01T05:51:30.729Z,7.50
2022-10-01T05:52:30.721Z,6.60
2022-10-01T05:53:30.671Z,6.50
2022-10-01T05:54:30.686Z,6.70
2022-10-01T05:55:30.661Z,6.20
2022-10-01T05:56:30.641Z,6.70
2022-10-01T05:57:30.647Z,6.70
2022-10-01T05:58:30.644Z,6.60
2022-10-01T05:59:31.990Z,6.60
2022-10-01T06:00:31.657Z,6.20
2022-10-01T06:01:30.726Z,6.30
2022-10-01T06:02:30.774Z,6.20
2022-10-01T06:03:30.639Z,5.80
2022-10-01T06:04:30.628Z,5.90
2022-10-01T06:05:30.649Z,5.60
2022-10-01T06:06:30.596Z,6.10
2022-10-01T06:07:30.599Z,5.90
2022-10-01T06:08:30.608Z,5.80
2022-10-01T06:09:30.586Z,5.70
2022-10-01T06:10:30.623Z,6.10
2022-10-01T06:11:30.624Z,5.10
2022-10-01T06:12:30.582Z,5.50
2022-10-01T06:13:30.562Z,5.50
2022-10-01T06:14:30.581Z,5.40
2022-10-01T06:15:30.581Z,5.50
2022-10-01T06:16:30.652Z,5.40
2022-10-01T06:17:30.593Z,5.40
2022-10-01T06:18:30.546Z,5.30
2022-10-01T06:19:30.554Z,5.30
2022-10-01T06:20:30.548Z,5.20
2022-10-01T06:21:30.672Z,5.50
2022-10-01T06:22:30.536Z,5.30
2022-10-01T06:23:30.553Z,5.10
2022-10-01T06:24:30.526Z,5.20
2022-10-01T06:25:30.585Z,4.70
2022-10-01T06:26:30.560Z,4.50
2022-10-01T06:27:30.510Z,5.00
2022-10-01T06:28:30.569Z,4.40
2022-10-01T06:29:31.562Z,4.50
2022-10-01T06:30:30.503Z,4.50
2022-10-01T06:31:30.612Z,4.90
2022-10-01T06:32:34.787Z,4.70
2022-10-01T06:33:31.519Z,4.50
2022-10-01T06:34:30.504Z,4.00
2022-10-01T06:35:30.460Z,4.20
2022-10-01T06:36:30.461Z,4.10
2022-10-01T06:37:30.509Z,4.00
2022-10-01T06:38:30.476Z,3.60
2022-10-01T06:39:30.483Z,3.80
2022-10-01T06:40:30.446Z,3.90
2022-10-01T06:41:30.431Z,3.90
2022-10-01T06:42:30.451Z,3.60
2022-10-01T06:43:30.447Z,3.50
2022-10-01T06:44:30.459Z,3.40
2022-10-01T06:45:30.460Z,3.30
2022-10-01T06:46:30.421Z,3.60
2022-10-01T06:47:30.411Z,3.40
2022-10-01T06:48:30.429Z,4.00
2022-10-01T06:49:30.403Z,3.10
2022-10-01T06:50:30.428Z,2.80
2022-10-01T06:51:30.396Z,3.00
2022-10-01T06:52:30.431Z,3.20
2022-10-01T06:53:30.380Z,2.90
2022-10-01T06:54:30.380Z,2.80
2022-10-01T06:55:30.380Z,2.90
2022-10-01T06:56:30.458Z,3.00
2022-10-01T06:57:30.393Z,2.40
2022-10-01T06:58:30.363Z,2.70
2022-10-01T06:59:30.373Z,2.90
2022-10-01T07:00:30.352Z,2.90
2022-10-01T07:01:30.385Z,2.70
2022-10-01T07:02:30.477Z,2.80
2022-10-01T07:03:30.351Z,2.40
2022-10-01T07:04:30.350Z,2.30
2022-10-01T07:05:30.330Z,2.20
2022-10-01T07:06:30.339Z,2.20
2022-10-01T07:07:30.331Z,2.30
2022-10-01T07:08:30.367Z,2.60
2022-10-01T07:09:30.304Z,2.10
2022-10-01T07:10:30.307Z,2.30
2022-10-01T07:11:30.297Z,2.50
2022-10-01T07:12:30.300Z,2.20
2022-10-01T07:13:30.322Z,2.30
2022-10-01T07:14:30.307Z,2.40
2022-10-01T07:15:30.299Z,2.10
2022-10-01T07:16:30.277Z,2.20
2022-10-01T07:17:30.279Z,1.70
2022-10-01T07:18:30.279Z,2.00
2022-10-01T07:19:30.286Z,1.70
2022-10-01T07:20:30.250Z,1.90
2022-10-01T07:21:30.249Z,1.50
2022-10-01T07:22:30.244Z,1.50
2022-10-01T07:23:30.240Z,1.90
2022-10-01T07:24:30.243Z,2.30
2022-10-01T07:25:30.243Z,1.90
2022-10-01T07:26:30.213Z,1.90
2022-10-01T07:27:30.262Z,1.90
2022-10-01T07:28:30.250Z,2.10
2022-10-01T07:29:30.200Z,2.00
2022-10-01T07:30:30.213Z,1.70
2022-10-01T07:31:30.236Z,1.60
2022-10-01T07:32:30.178Z,1.30
2022-10-01T07:33:30.188Z,1.70
2022-10-01T07:34:30.181Z,1.70
2022-10-01T07:35:30.239Z,1.80
2022-10-01T07:36:30.162Z,1.60
2022-10-01T07:37:30.156Z,1.60
2022-10-01T07:38:30.178Z,1.70
2022-10-01T07:39:30.152Z,1.50
2022-10-01T07:40:30.200Z,1.70
2022-10-01T07:41:30.167Z,1.50
2022-10-01T07:42:30.149Z,1.70
2022-10-01T07:43:30.167Z,1.40
2022-10-01T07:44:30.146Z,1.80
2022-10-01T07:45:30.231Z,1.40
2022-10-01T07:46:34.495Z,1.60
2022-10-01T07:47:31.904Z,1.30
2022-10-01T07:48:30.136Z,1.40
2022-10-01T07:49:30.085Z,1.60
2022-10-01T07:50:30.096Z,1.20
2022-10-01T07:51:30.119Z,1.30
2022-10-01T07:52:30.122Z,1.30
2022-10-01T07:53:30.094Z,1.30
2022-10-01T07:54:30.066Z,1.20
2022-10-01T07:55:30.069Z,1.40
2022-10-01T07:56:30.061Z,1.10
2022-10-01T07:57:30.097Z,1.40
2022-10-01T07:58:30.070Z,1.30
2022-10-01T07:59:30.056Z,1.30
2022-10-01T08:00:30.040Z,1.30
2022-10-01T08:01:30.132Z,1.50
2022-10-01T08:02:30.158Z,1.20
2022-10-01T08:03:30.048Z,1.10
2022-10-01T08:04:30.087Z,1.20
2022-10-01T08:05:30.029Z,1.30
2022-10-01T08:06:30.013Z,1.20
2022-10-01T08:07:30.025Z,1.20
2022-10-01T08:08:30.003Z,1.20
2022-10-01T08:09:30.042Z,1.30
2022-10-01T08:10:30.048Z,1.20
2022-10-01T08:11:30.000Z,1.40
2022-10-01T08:12:30.004Z,1.40
2022-10-01T08:13:29.996Z,1.30
2022-10-01T08:14:29.987Z,1.10
2022-10-01T08:15:30.008Z,1.50
2022-10-01T08:16:30.046Z,1.40
2022-10-01T08:17:29.973Z,1.50
2022-10-01T08:18:29.956Z,1.30
2022-10-01T08:19:29.965Z,1.40
2022-10-01T08:20:29.969Z,1.30
2022-10-01T08:21:29.960Z,1.20
2022-10-01T08:22:29.945Z,1.10
2022-10-01T08:23:29.982Z,1.30
2022-10-01T08:24:29.927Z,1.20
2022-10-01T08:25:30.003Z,1.30
2022-10-01T08:26:29.959Z,1.40
2022-10-01T08:27:29.973Z,1.10
2022-10-01T08:28:30.070Z,1.40
2022-10-01T08:29:29.915Z,1.40
2022-10-01T08:30:29.907Z,1.20
2022-10-01T08:31:30.981Z,1.30
2022-10-01T08:32:29.915Z,1.10
2022-10-01T08:33:29.891Z,1.10
2022-10-01T08:34:29.887Z,1.10
2022-10-01T08:35:29.899Z,1.20
2022-10-01T08:36:29.881Z,1.40
2022-10-01T08:37:29.891Z,1.60
2022-10-01T08:38:29.885Z,1.20
2022-10-01T08:39:29.846Z,1.30
2022-10-01T08:40:30.867Z,1.40
2022-10-01T08:41:29.854Z,1.10
2022-10-01T08:42:29.955Z,1.40
2022-10-01T08:43:29.845Z,1.60
2022-10-01T08:44:30.513Z,1.50
2022-10-01T08:45:29.892Z,1.40
2022-10-01T08:46:29.838Z,1.20
2022-10-01T08:47:29.837Z,1.40
2022-10-01T08:48:29.805Z,1.40
2022-10-01T08:49:29.842Z,1.30
2022-10-01T08:50:29.809Z,1.20
2022-10-01T08:51:29.795Z,1.20
2022-10-01T08:52:29.791Z,1.10
2022-10-01T08:53:29.792Z,1.00
2022-10-01T08:54:30.785Z,1.00
2022-10-01T08:55:29.765Z,0.90
2022-10-01T08:56:29.818Z,1.10
2022-10-01T08:57:29.760Z,1.10
2022-10-01T08:58:29.761Z,1.00
2022-10-01T08:59:29.752Z,1.10
2022-10-01T09:00:29.769Z,1.10
2022-10-01T09:01:29.810Z,1.10
2022-10-01T09:02:29.747Z,1.10
2022-10-01T09:03:29.742Z,1.10
2022-10-01T09:04:29.795Z,1.10
2022-10-01T09:05:29.746Z,1.10
2022-10-01T09:06:29.734Z,1.20
2022-10-01T09:07:29.716Z,1.10
2022-10-01T09:08:29.710Z,1.40
2022-10-01T09:09:29.719Z,1.40
2022-10-01T09:10:29.695Z,1.10
2022-10-01T09:11:29.717Z,1.00
2022-10-01T09:12:29.688Z,1.10
2022-10-01T09:13:29.691Z,1.00
2022-10-01T09:14:29.672Z,1.30
2022-10-01T09:15:29.668Z,1.30
2022-10-01T09:16:29.734Z,1.30
2022-10-01T09:17:29.696Z,1.30
2022-10-01T09:18:29.665Z,1.20
2022-10-01T09:19:29.656Z,1.40
2022-10-01T09:20:29.650Z,1.20
2022-10-01T09:21:29.630Z,1.10
2022-10-01T09:22:29.657Z,1.10
2022-10-01T09:23:29.619Z,1.30
2022-10-01T09:24:29.632Z,1.30
2022-10-01T09:25:29.619Z,1.40
2022-10-01T09:26:29.611Z,1.30
2022-10-01T09:27:29.681Z,1.30
2022-10-01T09:28:29.631Z,1.50
2022-10-01T09:29:29.586Z,1.20
2022-10-01T09:30:29.606Z,1.40
2022-10-01T09:31:29.613Z,1.40
2022-10-01T09:32:29.576Z,1.30
2022-10-01T09:33:29.622Z,1.10
2022-10-01T09:34:29.578Z,1.20
2022-10-01T09:35:29.561Z,1.00
2022-10-01T09:36:29.570Z,1.30
2022-10-01T09:37:29.547Z,1.20
2022-10-01T09:38:29.623Z,1.20
2022-10-01T09:39:29.554Z,1.40
2022-10-01T09:40:29.554Z,1.20
2022-10-01T09:41:29.570Z,1.00
2022-10-01T09:42:29.547Z,1.20
2022-10-01T09:43:29.547Z,1.30
2022-10-01T09:44:29.508Z,1.10
2022-10-01T09:45:29.657Z,1.30
2022-10-01T09:46:29.507Z,1.00
2022-10-01T09:47:29.504Z,1.20
2022-10-01T09:48:29.616Z,1.30
2022-10-01T09:49:29.487Z,1.10
2022-10-01T09:50:29.526Z,1.20
2022-10-01T09:51:29.649Z,1.20
2022-10-01T09:52:29.495Z,1.10
2022-10-01T09:53:29.543Z,1.20
2022-10-01T09:54:29.451Z,1.20
2022-10-01T09:55:29.472Z,1.20
2022-10-01T09:56:29.433Z,1.10
2022-10-01T09:57:29.464Z,0.90
2022-10-01T09:58:29.420Z,1.10
2022-10-01T09:59:29.427Z,1.00
2022-10-01T10:00:29.425Z,1.00
2022-10-01T10:01:29.440Z,1.00
2022-10-01T10:02:29.564Z,1.20
2022-10-01T10:03:29.490Z,1.30
2022-10-01T10:04:29.378Z,1.20
2022-10-01T10:05:29.393Z,1.10
2022-10-01T10:06:29.402Z,0.90
2022-10-01T10:07:29.511Z,0.90
2022-10-01T10:08:29.392Z,1.00
2022-10-01T10:09:29.350Z,1.10
2022-10-01T10:10:29.435Z,1.60
2022-10-01T10:11:29.347Z,1.20
2022-10-01T10:12:29.334Z,1.20
2022-10-01T10:13:29.380Z,1.50
2022-10-01T10:14:29.386Z,1.30
2022-10-01T10:15:29.320Z,2.10
2022-10-01T10:16:29.312Z,1.60
2022-10-01T10:17:29.313Z,1.30
2022-10-01T10:18:29.324Z,1.10
2022-10-01T10:19:29.310Z,1.20
2022-10-01T10:20:29.291Z,1.30
2022-10-01T10:21:29.287Z,1.30
2022-10-01T10:22:29.283Z,1.10
2022-10-01T10:23:29.385Z,1.20
2022-10-01T10:24:29.322Z,1.20
2022-10-01T10:25:29.287Z,1.30
2022-10-01T10:26:29.329Z,1.20
2022-10-01T10:27:29.252Z,1.20
2022-10-01T10:28:29.354Z,1.50
2022-10-01T10:29:29.229Z,1.20
2022-10-01T10:30:29.255Z,1.20
2022-10-01T10:31:29.324Z,1.30
2022-10-01T10:32:29.209Z,1.20
2022-10-01T10:33:29.223Z,1.10
2022-10-01T10:34:29.227Z,1.30
2022-10-01T10:35:29.319Z,1.10
2022-10-01T10:36:29.243Z,1.20
2022-10-01T10:37:29.192Z,1.20
2022-10-01T10:38:29.210Z,1.10
2022-10-01T10:39:29.268Z,1.20
2022-10-01T10:40:29.862Z,1.10
2022-10-01T10:41:30.187Z,1.20
2022-10-01T10:42:29.166Z,1.20
2022-10-01T10:43:29.156Z,0.90
2022-10-01T10:44:29.176Z,1.30
2022-10-01T10:45:29.145Z,1.20
2022-10-01T10:46:29.281Z,1.00
2022-10-01T10:47:29.122Z,1.20
2022-10-01T10:48:29.163Z,1.20
2022-10-01T10:49:29.114Z,1.20
2022-10-01T10:50:29.110Z,1.10
2022-10-01T10:51:30.122Z,1.10
2022-10-01T10:52:29.101Z,1.30
2022-10-01T10:53:29.129Z,1.30
2022-10-01T10:54:29.092Z,1.00
2022-10-01T10:55:29.101Z,1.10
2022-10-01T10:56:29.082Z,1.30
2022-10-01T10:57:29.063Z,1.10
2022-10-01T10:58:29.086Z,1.10
2022-10-01T10:59:29.041Z,1.00
2022-10-01T11:00:29.054Z,1.00
2022-10-01T11:01:29.129Z,1.10
2022-10-01T11:02:29.058Z,1.40
2022-10-01T11:03:29.037Z,1.20
2022-10-01T11:04:29.099Z,0.90
2022-10-01T11:05:29.083Z,1.20
2022-10-01T11:06:29.004Z,1.30
2022-10-01T11:07:29.004Z,1.10
2022-10-01T11:08:28.997Z,1.10
2022-10-01T11:09:29.004Z,1.10
2022-10-01T11:10:28.974Z,1.10
2022-10-01T11:11:29.123Z,1.20
2022-10-01T11:12:28.954Z,0.80
2022-10-01T11:13:29.975Z,1.00
2022-10-01T11:14:28.960Z,0.90
2022-10-01T11:15:28.985Z,1.60
2022-10-01T11:16:28.938Z,1.20
2022-10-01T11:17:28.925Z,1.00
2022-10-01T11:18:28.932Z,1.00
2022-10-01T11:19:28.917Z,1.20
2022-10-01T11:20:28.933Z,1.10
2022-10-01T11:21:28.923Z,1.00
2022-10-01T11:22:28.927Z,1.10
2022-10-01T11:23:28.879Z,1.20
2022-10-01T11:24:28.888Z,1.10
2022-10-01T11:25:28.894Z,1.00
2022-10-01T11:26:29.001Z,1.00
2022-10-01T11:27:29.027Z,1.00
2022-10-01T11:28:28.902Z,1.00
2022-10-01T11:29:28.867Z,1.20
2022-10-01T11:30:28.853Z,0.90
2022-10-01T11:31:28.912Z,0.90
2022-10-01T11:32:28.853Z,1.00
2022-10-01T11:33:28.838Z,1.00
2022-10-01T11:34:28.831Z,1.00
2022-10-01T11:35:28.861Z,0.80
2022-10-01T11:36:28.889Z,0.80
2022-10-01T11:37:28.810Z,0.90
2022-10-01T11:38:28.779Z,1.00
2022-10-01T11:39:28.815Z,1.00
2022-10-01T11:40:28.813Z,0.90
2022-10-01T11:41:28.786Z,0.80
2022-10-01T11:42:28.851Z,0.90
2022-10-01T11:43:28.762Z,0.90
2022-10-01T11:44:28.767Z,1.00
2022-10-01T11:45:28.765Z,1.00
2022-10-01T11:46:28.827Z,1.00
2022-10-01T11:47:28.744Z,1.00
2022-10-01T11:48:28.753Z,1.00
2022-10-01T11:49:28.742Z,0.90
2022-10-01T11:50:28.728Z,0.80
2022-10-01T11:51:28.718Z,0.80
2022-10-01T11:52:28.702Z,0.90
2022-10-01T11:53:28.781Z,0.90
2022-10-01T11:54:28.694Z,1.10
2022-10-01T11:55:28.673Z,0.80
2022-10-01T11:56:28.677Z,0.80
2022-10-01T11:57:28.696Z,0.80
2022-10-01T11:58:28.719Z,0.70
2022-10-01T11:59:28.662Z,0.70
2022-10-01T12:00:28.638Z,0.80
2022-10-01T12:01:28.686Z,0.80
2022-10-01T12:02:28.631Z,0.60
2022-10-01T12:03:28.632Z,0.70
2022-10-01T12:04:28.661Z,0.70
2022-10-01T12:05:28.718Z,0.50
2022-10-01T12:06:33.615Z,0.60
2022-10-01T12:07:30.623Z,0.60
2022-10-01T12:08:28.620Z,0.60
2022-10-01T12:09:28.599Z,0.60
2022-10-01T12:10:28.622Z,0.80
2022-10-01T12:11:28.645Z,0.70
2022-10-01T12:12:28.561Z,0.70
2022-10-01T12:13:28.736Z,0.80
2022-10-01T12:14:28.574Z,0.80
2022-10-01T12:15:28.588Z,0.60
2022-10-01T12:16:28.673Z,0.50
2022-10-01T12:17:28.577Z,0.60
2022-10-01T12:18:28.860Z,0.70
2022-10-01T12:19:28.535Z,0.50
2022-10-01T12:20:28.520Z,0.70
2022-10-01T12:21:28.566Z,0.70
2022-10-01T12:22:28.527Z,0.70
2022-10-01T12:23:28.499Z,0.70
2022-10-01T12:24:28.502Z,0.70
2022-10-01T12:25:28.466Z,0.60
2022-10-01T12:26:28.469Z,0.60
2022-10-01T12:27:28.501Z,0.70
2022-10-01T12:28:28.485Z,0.80
2022-10-01T12:29:28.502Z,0.80
2022-10-01T12:30:28.489Z,0.80
2022-10-01T12:31:28.462Z,0.90
2022-10-01T12:32:28.420Z,1.20
2022-10-01T12:33:28.422Z,1.00
2022-10-01T12:34:28.452Z,1.20
2022-10-01T12:35:28.421Z,1.20
2022-10-01T12:36:28.401Z,1.30
2022-10-01T12:37:28.396Z,1.30
2022-10-01T12:38:28.415Z,1.20
2022-10-01T12:39:28.370Z,1.50
2022-10-01T12:40:28.410Z,1.10
2022-10-01T12:41:28.361Z,1.10
2022-10-01T12:42:28.344Z,1.20
2022-10-01T12:43:28.380Z,1.20
2022-10-01T12:44:28.348Z,1.20
2022-10-01T12:45:28.371Z,1.20
2022-10-01T12:46:28.364Z,1.20
2022-10-01T12:47:28.308Z,1.10
2022-10-01T12:48:28.365Z,1.10
2022-10-01T12:49:28.300Z,1.00
2022-10-01T12:50:28.289Z,0.90
2022-10-01T12:51:29.311Z,0.80
2022-10-01T12:52:28.295Z,0.90
2022-10-01T12:53:28.284Z,0.90
2022-10-01T12:54:28.269Z,1.00
2022-10-01T12:55:28.296Z,1.00
2022-10-01T12:56:28.365Z,1.10
2022-10-01T12:57:28.255Z,0.90
2022-10-01T12:58:28.236Z,0.80
2022-10-01T12:59:28.232Z,0.80
2022-10-01T13:00:28.258Z,0.90
2022-10-01T13:01:28.274Z,0.90
2022-10-01T13:02:28.236Z,0.70
2022-10-01T13:03:28.222Z,1.10
2022-10-01T13:04:28.193Z,1.10
2022-10-01T13:05:28.231Z,0.90
2022-10-01T13:06:28.206Z,0.70
2022-10-01T13:07:28.174Z,1.00
2022-10-01T13:08:28.153Z,0.80
2022-10-01T13:09:28.162Z,1.00
2022-10-01T13:10:28.146Z,0.90
2022-10-01T13:11:28.860Z,0.90
2022-10-01T13:12:28.170Z,0.90
2022-10-01T13:13:28.128Z,1.10
2022-10-01T13:14:28.115Z,0.80
2022-10-01T13:15:28.147Z,1.00
2022-10-01T13:16:28.173Z,0.80
2022-10-01T13:17:31.481Z,1.30
2022-10-01T13:18:30.133Z,0.90